createdAt,value
2017-03-17T00:00:16.349Z,60.98
2017-03-17T00:00:57.231Z,61.45
2017-03-17T00:01:38.113Z,61.26
2017-03-17T00:02:18.987Z,61.83
2017-03-17T00:02:59.867Z,62.02
2017-03-17T00:03:40.766Z,61.93
2017-03-17T00:04:21.620Z,61.65
2017-03-17T00:05:02.503Z,61.55
2017-03-17T00:05:43.387Z,61.36
2017-03-17T00:06:24.261Z,61.65
2017-03-17T00:07:05.140Z,61.65
2017-03-17T00:07:46.016Z,61.74
2017-03-17T00:08:26.898Z,61.74
2017-03-17T00:09:07.779Z,61.74
2017-03-17T00:09:48.666Z,61.93
2017-03-17T00:10:29.553Z,62.02
2017-03-17T00:11:10.443Z,61.74
2017-03-17T00:11:51.323Z,62.31
2017-03-17T00:12:32.380Z,62.31
2017-03-17T00:13:13.260Z,62.02
2017-03-17T00:13:54.145Z,61.93
2017-03-17T00:14:35.026Z,62.78
2017-03-17T00:15:15.910Z,62.78
2017-03-17T00:15:56.790Z,62.59
2017-03-17T00:16:37.672Z,62.5
2017-03-17T00:17:18.551Z,62.88
2017-03-17T00:17:59.446Z,62.97
2017-03-17T00:18:40.322Z,63.07
2017-03-17T00:19:21.200Z,62.97
2017-03-17T00:20:02.079Z,63.17
2017-03-17T00:20:42.955Z,63.64
2017-03-17T00:21:23.835Z,63.17
2017-03-17T00:22:04.713Z,63.45
2017-03-17T00:22:45.596Z,63.73
2017-03-17T00:23:26.498Z,64.02
2017-03-17T00:24:07.379Z,64.4
2017-03-17T00:24:48.256Z,64.4
2017-03-17T00:25:29.139Z,64.4
2017-03-17T00:26:10.016Z,64.49
2017-03-17T00:26:50.898Z,64.59
2017-03-17T00:27:31.781Z,64.59
2017-03-17T00:28:12.666Z,64.59
2017-03-17T00:28:53.547Z,64.59
2017-03-17T00:29:34.423Z,64.56
2017-03-17T00:30:15.294Z,65.06
2017-03-17T00:30:56.181Z,64.94
2017-03-17T00:31:37.049Z,65.06
2017-03-17T00:32:17.935Z,65.41
2017-03-17T00:32:58.818Z,65.5
2017-03-17T00:33:39.707Z,65.69
2017-03-17T00:34:20.586Z,65.69
2017-03-17T00:35:01.460Z,65.79
2017-03-17T00:35:42.345Z,65.5
2017-03-17T00:36:23.254Z,65.5
2017-03-17T00:37:04.116Z,65.6
2017-03-17T00:37:44.998Z,65.88
2017-03-17T00:38:25.876Z,66.17
2017-03-17T00:39:06.760Z,66.17
2017-03-17T00:39:47.641Z,66.17
2017-03-17T00:40:28.514Z,66.08
2017-03-17T00:41:09.404Z,66.08
2017-03-17T00:41:50.282Z,66.08
2017-03-17T00:42:31.156Z,66.08
2017-03-17T00:43:12.045Z,65.98
2017-03-17T00:43:52.929Z,66.27
2017-03-17T00:44:33.817Z,66.36
2017-03-17T00:45:14.703Z,65.41
2017-03-17T00:45:55.580Z,65.98
2017-03-17T00:46:36.464Z,65.79
2017-03-17T00:47:17.340Z,65.98
2017-03-17T00:47:58.220Z,65.5
2017-03-17T00:48:39.094Z,65.69
2017-03-17T00:49:19.980Z,65.69
2017-03-17T00:50:00.866Z,65.69
2017-03-17T00:50:41.744Z,65.6
2017-03-17T00:51:22.633Z,65.88
2017-03-17T00:52:03.512Z,65.6
2017-03-17T00:52:44.398Z,65.41
2017-03-17T00:53:25.286Z,65.79
2017-03-17T00:54:06.161Z,65.69
2017-03-17T00:54:47.039Z,65.79
2017-03-17T00:55:27.919Z,65.6
2017-03-17T00:56:08.797Z,65.79
2017-03-17T00:56:49.672Z,65.6
2017-03-17T00:57:30.551Z,65.41
2017-03-17T00:58:11.432Z,65.98
2017-03-17T00:58:52.311Z,65.79
2017-03-17T00:59:33.188Z,65.69
2017-03-17T01:00:14.067Z,65.79
2017-03-17T01:00:54.954Z,65.88
2017-03-17T01:01:35.833Z,65.69
2017-03-17T01:02:16.704Z,65.6
2017-03-17T01:02:57.579Z,65.79
2017-03-17T01:03:38.458Z,65.6
2017-03-17T01:04:19.339Z,65.79
2017-03-17T01:05:00.219Z,65.69
2017-03-17T01:05:41.105Z,65.69
2017-03-17T01:06:21.994Z,65.98
2017-03-17T01:07:02.870Z,66.36
2017-03-17T01:07:43.742Z,66.17
2017-03-17T01:08:24.616Z,66.08
2017-03-17T01:09:05.496Z,66.08
2017-03-17T01:09:46.378Z,66.36
2017-03-17T01:10:27.282Z,65.98
2017-03-17T01:11:08.142Z,65.69
2017-03-17T01:11:49.029Z,65.79
2017-03-17T01:12:29.906Z,65.79
2017-03-17T01:13:10.788Z,65.6
2017-03-17T01:13:51.676Z,65.5
2017-03-17T01:14:32.555Z,65.69
2017-03-17T01:15:13.441Z,65.79
2017-03-17T01:15:54.323Z,65.5
2017-03-17T01:16:35.200Z,65.5
2017-03-17T01:17:16.089Z,65.5
2017-03-17T01:17:56.972Z,65.98
2017-03-17T01:18:37.846Z,65.79
2017-03-17T01:19:18.719Z,65.79
2017-03-17T01:19:59.601Z,65.41
2017-03-17T01:20:40.480Z,65.79
2017-03-17T01:21:21.369Z,65.5
2017-03-17T01:22:03.106Z,65.79
2017-03-17T01:22:43.151Z,65.79
2017-03-17T01:23:24.040Z,65.41
2017-03-17T01:24:04.926Z,65.98
2017-03-17T01:24:45.809Z,65.6
2017-03-17T01:25:26.695Z,65.79
2017-03-17T01:26:07.576Z,65.5
2017-03-17T01:26:48.443Z,65.6
2017-03-17T01:27:29.324Z,65.98
2017-03-17T01:28:10.206Z,65.69
2017-03-17T01:28:51.093Z,65.79
2017-03-17T01:29:31.976Z,65.79
2017-03-17T01:30:12.860Z,65.6
2017-03-17T01:30:53.739Z,65.79
2017-03-17T01:31:34.621Z,65.69
2017-03-17T01:32:15.502Z,65.6
2017-03-17T01:32:56.384Z,65.79
2017-03-17T01:33:37.267Z,65.69
2017-03-17T01:34:18.145Z,65.69
2017-03-17T01:34:59.028Z,65.6
2017-03-17T01:35:39.909Z,65.6
2017-03-17T01:36:20.791Z,65.6
2017-03-17T01:37:01.667Z,65.69
2017-03-17T01:37:42.540Z,65.6
2017-03-17T01:38:23.432Z,65.41
2017-03-17T01:39:04.301Z,65.5
2017-03-17T01:39:45.176Z,65.79
2017-03-17T01:40:26.059Z,65.79
2017-03-17T01:41:06.935Z,65.41
2017-03-17T01:41:47.820Z,65.69
2017-03-17T01:42:28.699Z,65.6
2017-03-17T01:43:09.569Z,65.69
2017-03-17T01:43:50.449Z,65.6
2017-03-17T01:44:31.329Z,65.69
2017-03-17T01:45:12.214Z,65.69
2017-03-17T01:45:53.096Z,65.5
2017-03-17T01:46:33.977Z,65.22
2017-03-17T01:47:14.858Z,65.31
2017-03-17T01:47:55.734Z,65.88
2017-03-17T01:48:36.618Z,65.79
2017-03-17T01:49:17.498Z,65.6
2017-03-17T01:49:58.387Z,65.5
2017-03-17T01:50:39.259Z,65.88
2017-03-17T01:51:20.134Z,65.79
2017-03-17T01:52:01.019Z,65.31
2017-03-17T01:52:41.897Z,65.69
2017-03-17T01:53:22.784Z,65.22
2017-03-17T01:54:03.663Z,65.69
2017-03-17T01:54:44.544Z,65.6
2017-03-17T01:55:25.433Z,65.6
2017-03-17T01:56:06.319Z,65.6
2017-03-17T01:56:47.200Z,65.41
2017-03-17T01:57:28.079Z,65.12
2017-03-17T01:58:08.951Z,65.12
2017-03-17T01:58:49.829Z,65.31
2017-03-17T01:59:30.713Z,65.22
2017-03-17T02:00:11.598Z,65.31
2017-03-17T02:00:52.469Z,65.5
2017-03-17T02:01:33.357Z,65.6
2017-03-17T02:02:14.238Z,65.6
2017-03-17T02:02:55.116Z,65.5
2017-03-17T02:03:35.998Z,65.5
2017-03-17T02:04:16.880Z,65.56
2017-03-17T02:04:57.755Z,65.5
2017-03-17T02:05:38.630Z,65.5
2017-03-17T02:06:19.513Z,65.5
2017-03-17T02:07:00.399Z,65.88
2017-03-17T02:07:41.274Z,65.69
2017-03-17T02:08:22.154Z,65.79
2017-03-17T02:09:03.038Z,65.5
2017-03-17T02:09:43.921Z,65.79
2017-03-17T02:10:24.802Z,65.6
2017-03-17T02:11:05.683Z,65.69
2017-03-17T02:11:46.572Z,65.6
2017-03-17T02:12:27.444Z,65.69
2017-03-17T02:13:08.319Z,65.79
2017-03-17T02:13:49.203Z,65.66
2017-03-17T02:14:30.084Z,65.98
2017-03-17T02:15:10.964Z,65.56
2017-03-17T02:15:51.842Z,65.41
2017-03-17T02:16:32.712Z,65.79
2017-03-17T02:17:13.594Z,65.88
2017-03-17T02:17:54.477Z,65.37
2017-03-17T02:18:35.355Z,65.41
2017-03-17T02:19:16.236Z,66.08
2017-03-17T02:19:57.105Z,65.69
2017-03-17T02:20:37.985Z,65.95
2017-03-17T02:21:18.871Z,65.95
2017-03-17T02:21:59.751Z,65.98
2017-03-17T02:22:40.632Z,65.75
2017-03-17T02:23:21.527Z,65.98
2017-03-17T02:24:02.408Z,65.79
2017-03-17T02:24:43.289Z,65.6
2017-03-17T02:25:24.171Z,65.79
2017-03-17T02:26:05.053Z,65.5
2017-03-17T02:26:45.933Z,65.69
2017-03-17T02:27:26.834Z,65.5
2017-03-17T02:28:07.703Z,65.6
2017-03-17T02:28:48.586Z,65.79
2017-03-17T02:29:29.468Z,65.88
2017-03-17T02:30:10.342Z,65.56
2017-03-17T02:30:51.226Z,65.85
2017-03-17T02:31:32.112Z,65.69
2017-03-17T02:32:12.994Z,65.79
2017-03-17T02:32:53.880Z,65.66
2017-03-17T02:33:34.759Z,65.66
2017-03-17T02:34:15.636Z,65.98
2017-03-17T02:34:56.521Z,65.79
2017-03-17T02:35:37.400Z,65.66
2017-03-17T02:36:18.283Z,65.47
2017-03-17T02:36:59.166Z,65.75
2017-03-17T02:37:40.055Z,65.95
2017-03-17T02:38:20.936Z,65.85
2017-03-17T02:39:01.815Z,65.75
2017-03-17T02:39:42.693Z,65.66
2017-03-17T02:40:23.574Z,65.5
2017-03-17T02:41:04.450Z,65.47
2017-03-17T02:41:45.335Z,65.47
2017-03-17T02:42:26.203Z,65.85
2017-03-17T02:43:07.081Z,65.85
2017-03-17T02:43:47.990Z,65.56
2017-03-17T02:44:28.870Z,65.56
2017-03-17T02:45:09.740Z,65.56
2017-03-17T02:45:50.619Z,65.75
2017-03-17T02:46:31.500Z,65.66
2017-03-17T02:47:12.379Z,65.66
2017-03-17T02:47:53.260Z,65.75
2017-03-17T02:48:34.136Z,65.56
2017-03-17T02:49:15.021Z,65.75
2017-03-17T02:49:55.905Z,66.42
2017-03-17T02:50:36.793Z,66.04
2017-03-17T02:51:17.674Z,66.42
2017-03-17T02:51:58.560Z,65.66
2017-03-17T02:52:39.440Z,65.75
2017-03-17T02:53:20.330Z,65.75
2017-03-17T02:54:01.214Z,65.56
2017-03-17T02:54:42.100Z,65.75
2017-03-17T02:55:22.982Z,65.75
2017-03-17T02:56:03.862Z,65.47
2017-03-17T02:56:44.743Z,65.56
2017-03-17T02:57:25.627Z,65.56
2017-03-17T02:58:06.521Z,65.56
2017-03-17T02:58:47.401Z,66.33
2017-03-17T02:59:28.279Z,66.14
2017-03-17T03:00:09.166Z,65.85
2017-03-17T03:00:50.051Z,66.04
2017-03-17T03:01:30.930Z,66.33
2017-03-17T03:02:11.813Z,66.71
2017-03-17T03:02:52.703Z,66.42
2017-03-17T03:03:33.584Z,66.42
2017-03-17T03:04:14.467Z,66.89
2017-03-17T03:04:55.350Z,66.99
2017-03-17T03:05:36.244Z,66.23
2017-03-17T03:06:17.120Z,66.23
2017-03-17T03:06:58.000Z,66.71
2017-03-17T03:07:38.869Z,66.99
2017-03-17T03:08:19.749Z,66.8
2017-03-17T03:09:00.628Z,66.99
2017-03-17T03:09:41.518Z,66.99
2017-03-17T03:10:22.397Z,66.42
2017-03-17T03:11:03.294Z,66.52
2017-03-17T03:11:44.185Z,66.89
2017-03-17T03:12:25.065Z,66.61
2017-03-17T03:13:05.944Z,66.33
2017-03-17T03:13:46.843Z,66.89
2017-03-17T03:14:27.737Z,66.61
2017-03-17T03:15:08.608Z,66.8
2017-03-17T03:15:49.488Z,66.71
2017-03-17T03:16:30.363Z,66.99
2017-03-17T03:17:11.250Z,66.8
2017-03-17T03:17:52.123Z,66.42
2017-03-17T03:18:32.995Z,66.71
2017-03-17T03:19:13.873Z,66.42
2017-03-17T03:19:54.741Z,66.99
2017-03-17T03:20:35.626Z,66.99
2017-03-17T03:21:16.510Z,66.99
2017-03-17T03:21:57.388Z,66.52
2017-03-17T03:22:38.263Z,66.52
2017-03-17T03:23:19.155Z,66.52
2017-03-17T03:24:00.039Z,66.61
2017-03-17T03:24:40.919Z,66.89
2017-03-17T03:25:21.800Z,66.61
2017-03-17T03:26:02.673Z,66.52
2017-03-17T03:26:43.570Z,66.89
2017-03-17T03:27:24.457Z,66.99
2017-03-17T03:28:05.339Z,66.99
2017-03-17T03:28:46.243Z,66.89
2017-03-17T03:29:27.108Z,66.52
2017-03-17T03:30:07.985Z,66.8
2017-03-17T03:30:48.866Z,66.89
2017-03-17T03:31:29.747Z,66.33
2017-03-17T03:32:10.633Z,66.33
2017-03-17T03:32:51.519Z,66.42
2017-03-17T03:33:32.397Z,66.61
2017-03-17T03:34:13.282Z,66.42
2017-03-17T03:34:54.169Z,66.52
2017-03-17T03:35:35.051Z,66.61
2017-03-17T03:36:15.934Z,66.42
2017-03-17T03:36:56.819Z,66.33
2017-03-17T03:37:37.706Z,66.42
2017-03-17T03:38:18.609Z,66.23
2017-03-17T03:38:59.470Z,66.61
2017-03-17T03:39:40.351Z,66.42
2017-03-17T03:40:21.235Z,66.61
2017-03-17T03:41:02.114Z,66.33
2017-03-17T03:41:42.990Z,66.33
2017-03-17T03:42:23.875Z,66.71
2017-03-17T03:43:04.772Z,66.89
2017-03-17T03:43:45.657Z,66.71
2017-03-17T03:44:26.529Z,66.61
2017-03-17T03:45:07.414Z,66.71
2017-03-17T03:45:48.304Z,66.8
2017-03-17T03:46:29.188Z,66.99
2017-03-17T03:47:10.067Z,66.89
2017-03-17T03:47:50.948Z,66.61
2017-03-17T03:48:31.840Z,66.89
2017-03-17T03:49:12.718Z,66.99
2017-03-17T03:49:53.599Z,66.71
2017-03-17T03:50:34.502Z,66.61
2017-03-17T03:51:15.363Z,66.71
2017-03-17T03:51:56.243Z,66.42
2017-03-17T03:52:37.121Z,66.14
2017-03-17T03:53:17.998Z,66.33
2017-03-17T03:53:58.891Z,66.04
2017-03-17T03:54:39.778Z,66.04
2017-03-17T03:55:20.654Z,66.52
2017-03-17T03:56:01.530Z,66.61
2017-03-17T03:56:42.413Z,66.61
2017-03-17T03:57:23.298Z,66.04
2017-03-17T03:58:04.178Z,66.04
2017-03-17T03:58:45.054Z,65.85
2017-03-17T03:59:25.937Z,66.42
2017-03-17T04:00:06.830Z,66.61
2017-03-17T04:00:47.708Z,66.71
2017-03-17T04:01:28.589Z,66.52
2017-03-17T04:02:09.473Z,65.85
2017-03-17T04:02:50.366Z,66.04
2017-03-17T04:03:31.241Z,65.85
2017-03-17T04:04:12.115Z,66.14
2017-03-17T04:04:52.995Z,66.42
2017-03-17T04:05:33.870Z,66.8
2017-03-17T04:06:14.778Z,66.89
2017-03-17T04:06:55.645Z,66.52
2017-03-17T04:07:36.529Z,66.61
2017-03-17T04:08:17.411Z,66.23
2017-03-17T04:08:58.295Z,66.42
2017-03-17T04:09:39.178Z,66.33
2017-03-17T04:10:20.056Z,66.33
2017-03-17T04:11:00.939Z,66.04
2017-03-17T04:11:41.832Z,66.33
2017-03-17T04:12:22.708Z,66.33
2017-03-17T04:13:03.587Z,66.89
2017-03-17T04:13:44.466Z,66.61
2017-03-17T04:14:25.345Z,66.61
2017-03-17T04:15:06.229Z,66.61
2017-03-17T04:15:47.109Z,66.8
2017-03-17T04:16:27.990Z,66.52
2017-03-17T04:17:08.880Z,66.99
2017-03-17T04:17:49.763Z,66.71
2017-03-17T04:18:30.643Z,66.89
2017-03-17T04:19:11.529Z,66.71
2017-03-17T04:19:52.407Z,66.89
2017-03-17T04:20:33.292Z,66.71
2017-03-17T04:21:14.177Z,66.71
2017-03-17T04:21:55.059Z,66.89
2017-03-17T04:22:35.947Z,66.52
2017-03-17T04:23:16.832Z,66.52
2017-03-17T04:23:57.706Z,66.71
2017-03-17T04:24:38.591Z,66.89
2017-03-17T04:25:19.481Z,67.08
2017-03-17T04:26:00.361Z,67.08
2017-03-17T04:26:41.259Z,67.46
2017-03-17T04:27:22.120Z,66.8
2017-03-17T04:28:02.996Z,66.61
2017-03-17T04:28:43.888Z,66.61
2017-03-17T04:29:24.759Z,66.61
2017-03-17T04:30:05.641Z,67.37
2017-03-17T04:30:46.518Z,66.89
2017-03-17T04:31:27.407Z,67.08
2017-03-17T04:32:08.288Z,67.75
2017-03-17T04:32:49.169Z,67.46
2017-03-17T04:33:30.057Z,66.71
2017-03-17T04:34:10.945Z,66.89
2017-03-17T04:34:51.829Z,66.89
2017-03-17T04:35:32.697Z,66.71
2017-03-17T04:36:13.561Z,66.71
2017-03-17T04:36:54.448Z,66.61
2017-03-17T04:37:35.335Z,66.61
2017-03-17T04:38:16.215Z,66.89
2017-03-17T04:38:57.092Z,66.89
2017-03-17T04:39:37.966Z,66.89
2017-03-17T04:40:18.839Z,66.89
2017-03-17T04:40:59.709Z,67.18
2017-03-17T04:41:40.600Z,66.71
2017-03-17T04:42:21.477Z,66.99
2017-03-17T04:43:02.398Z,67.37
2017-03-17T04:43:43.286Z,67.08
2017-03-17T04:44:24.161Z,67.27
2017-03-17T04:45:05.034Z,67.18
2017-03-17T04:45:45.923Z,67.27
2017-03-17T04:46:26.809Z,67.56
2017-03-17T04:47:07.693Z,67.46
2017-03-17T04:47:48.579Z,67.65
2017-03-17T04:48:29.469Z,67.27
2017-03-17T04:49:10.346Z,67.37
2017-03-17T04:49:51.227Z,67.85
2017-03-17T04:50:32.102Z,67.37
2017-03-17T04:51:12.988Z,67.46
2017-03-17T04:51:53.878Z,67.18
2017-03-17T04:52:34.755Z,66.61
2017-03-17T04:53:15.647Z,66.99
2017-03-17T04:53:56.532Z,67.18
2017-03-17T04:54:37.419Z,67.37
2017-03-17T04:55:18.295Z,67.46
2017-03-17T04:55:59.180Z,67.37
2017-03-17T04:56:40.090Z,67.65
2017-03-17T04:57:20.966Z,66.99
2017-03-17T04:58:01.857Z,67.37
2017-03-17T04:58:42.743Z,66.71
2017-03-17T04:59:23.626Z,66.61
2017-03-17T05:00:04.503Z,66.52
2017-03-17T05:00:45.393Z,66.8
2017-03-17T05:01:26.279Z,66.8
2017-03-17T05:02:07.156Z,66.89
2017-03-17T05:02:48.043Z,66.71
2017-03-17T05:03:28.923Z,66.89
2017-03-17T05:04:09.808Z,66.8
2017-03-17T05:04:50.704Z,66.8
2017-03-17T05:05:31.579Z,66.89
2017-03-17T05:06:12.464Z,66.89
2017-03-17T05:06:53.359Z,66.52
2017-03-17T05:07:34.234Z,67.08
2017-03-17T05:08:15.108Z,67.85
2017-03-17T05:08:55.992Z,67.37
2017-03-17T05:09:36.877Z,67.37
2017-03-17T05:10:17.757Z,67.75
2017-03-17T05:10:58.624Z,67.56
2017-03-17T05:11:39.493Z,67.56
2017-03-17T05:12:20.376Z,67.08
2017-03-17T05:13:01.263Z,66.99
2017-03-17T05:13:42.148Z,67.46
2017-03-17T05:14:23.031Z,67.75
2017-03-17T05:15:03.911Z,67.46
2017-03-17T05:15:44.796Z,67.37
2017-03-17T05:16:25.684Z,67.46
2017-03-17T05:17:06.563Z,67.75
2017-03-17T05:17:47.446Z,67.46
2017-03-17T05:18:28.328Z,67.94
2017-03-17T05:19:09.212Z,67.56
2017-03-17T05:19:50.091Z,67.27
2017-03-17T05:20:30.968Z,67.46
2017-03-17T05:21:11.862Z,67.37
2017-03-17T05:21:52.740Z,67.75
2017-03-17T05:22:33.628Z,67.85
2017-03-17T05:23:14.495Z,67.37
2017-03-17T05:23:55.378Z,67.46
2017-03-17T05:24:36.257Z,67.46
2017-03-17T05:25:17.143Z,67.37
2017-03-17T05:25:58.024Z,67.46
2017-03-17T05:26:38.904Z,67.65
2017-03-17T05:27:19.786Z,67.46
2017-03-17T05:28:00.668Z,67.65
2017-03-17T05:28:41.546Z,67.27
2017-03-17T05:29:22.424Z,67.46
2017-03-17T05:30:03.305Z,67.37
2017-03-17T05:30:44.209Z,67.37
2017-03-17T05:31:25.092Z,67.46
2017-03-17T05:32:05.972Z,66.99
2017-03-17T05:32:46.854Z,66.61
2017-03-17T05:33:27.742Z,66.8
2017-03-17T05:34:08.620Z,67.37
2017-03-17T05:34:49.490Z,66.99
2017-03-17T05:35:30.363Z,66.8
2017-03-17T05:36:11.246Z,66.99
2017-03-17T05:36:52.131Z,66.8
2017-03-17T05:37:33.002Z,66.36
2017-03-17T05:38:13.893Z,66.74
2017-03-17T05:38:54.772Z,66.33
2017-03-17T05:39:35.655Z,66.64
2017-03-17T05:40:16.534Z,66.83
2017-03-17T05:40:57.408Z,66.74
2017-03-17T05:41:38.280Z,65.95
2017-03-17T05:42:19.170Z,66.17
2017-03-17T05:43:00.059Z,65.98
2017-03-17T05:43:40.948Z,66.36
2017-03-17T05:44:21.845Z,65.6
2017-03-17T05:45:02.723Z,65.69
2017-03-17T05:45:43.620Z,65.6
2017-03-17T05:46:24.501Z,65.5
2017-03-17T05:47:05.381Z,65.6
2017-03-17T05:47:46.264Z,65.6
2017-03-17T05:48:27.145Z,65.6
2017-03-17T05:49:08.025Z,65.31
2017-03-17T05:49:48.911Z,65.41
2017-03-17T05:50:29.788Z,64.94
2017-03-17T05:51:10.674Z,65.03
2017-03-17T05:51:51.558Z,64.94
2017-03-17T05:52:32.442Z,64.65
2017-03-17T05:53:13.321Z,64.46
2017-03-17T05:53:54.202Z,64.56
2017-03-17T05:54:35.090Z,64.37
2017-03-17T05:55:15.971Z,64.17
2017-03-17T05:55:56.852Z,64.08
2017-03-17T05:56:37.735Z,64.27
2017-03-17T05:57:18.625Z,63.89
2017-03-17T05:57:59.506Z,64.11
2017-03-17T05:58:40.395Z,63.73
2017-03-17T05:59:21.286Z,63.73
2017-03-17T06:00:02.162Z,63.35
2017-03-17T06:00:43.046Z,63.42
2017-03-17T06:01:23.929Z,63.54
2017-03-17T06:02:04.808Z,63.54
2017-03-17T06:02:45.691Z,63.54
2017-03-17T06:03:26.576Z,63.54
2017-03-17T06:04:07.458Z,63.54
2017-03-17T06:04:48.339Z,63.26
2017-03-17T06:05:29.226Z,63.26
2017-03-17T06:06:10.113Z,63.26
2017-03-17T06:06:50.994Z,63.35
2017-03-17T06:07:31.875Z,63.83
2017-03-17T06:08:12.759Z,63.54
2017-03-17T06:08:53.642Z,63.26
2017-03-17T06:09:34.529Z,63.45
2017-03-17T06:10:15.410Z,63.35
2017-03-17T06:10:56.291Z,63.07
2017-03-17T06:11:37.169Z,63.17
2017-03-17T06:12:18.051Z,62.97
2017-03-17T06:12:58.928Z,62.97
2017-03-17T06:13:39.808Z,62.78
2017-03-17T06:14:20.704Z,61.93
2017-03-17T06:15:01.592Z,62.12
2017-03-17T06:15:42.466Z,62.12
2017-03-17T06:16:23.358Z,62.5
2017-03-17T06:17:04.241Z,61.93
2017-03-17T06:17:45.120Z,62.02
2017-03-17T06:18:26.005Z,61.74
2017-03-17T06:19:06.891Z,61.83
2017-03-17T06:19:47.776Z,61.65
2017-03-17T06:20:28.665Z,61.55
2017-03-17T06:21:09.546Z,61.65
2017-03-17T06:21:50.428Z,61.74
2017-03-17T06:22:31.308Z,61.83
2017-03-17T06:23:12.190Z,61.45
2017-03-17T06:23:53.071Z,61.45
2017-03-17T06:24:33.956Z,61.93
2017-03-17T06:25:14.851Z,62.02
2017-03-17T06:25:55.721Z,61.87
2017-03-17T06:26:36.598Z,61.39
2017-03-17T06:27:17.481Z,62.02
2017-03-17T06:27:58.375Z,61.83
2017-03-17T06:28:39.264Z,62.21
2017-03-17T06:29:20.148Z,61.83
2017-03-17T06:30:01.027Z,61.83
2017-03-17T06:30:41.914Z,62.02
2017-03-17T06:31:22.797Z,62.02
2017-03-17T06:32:03.678Z,61.77
2017-03-17T06:32:44.563Z,61.83
2017-03-17T06:33:25.446Z,61.68
2017-03-17T06:34:06.329Z,61.77
2017-03-17T06:34:47.255Z,61.87
2017-03-17T06:35:28.173Z,61.39
2017-03-17T06:36:09.058Z,61.01
2017-03-17T06:36:49.952Z,61.1
2017-03-17T06:37:30.831Z,61.1
2017-03-17T06:38:11.704Z,60.82
2017-03-17T06:38:52.588Z,60.91
2017-03-17T06:39:33.478Z,60.53
2017-03-17T06:40:14.375Z,60.25
2017-03-17T06:40:55.267Z,60.25
2017-03-17T06:41:36.154Z,60.16
2017-03-17T06:42:17.034Z,60.16
2017-03-17T06:42:57.915Z,60.25
2017-03-17T06:43:38.799Z,60.35
2017-03-17T06:44:19.674Z,60.25
2017-03-17T06:45:00.569Z,60.16
2017-03-17T06:45:41.459Z,60.28
2017-03-17T06:46:22.339Z,60.16
2017-03-17T06:47:03.230Z,59.42
2017-03-17T06:47:44.119Z,59.61
2017-03-17T06:48:24.992Z,59.61
2017-03-17T06:49:05.881Z,59.8
2017-03-17T06:49:46.762Z,59.61
2017-03-17T06:50:27.641Z,59.42
2017-03-17T06:51:08.524Z,59.23
2017-03-17T06:51:49.404Z,59.52
2017-03-17T06:52:30.295Z,59.14
2017-03-17T06:53:11.179Z,59.23
2017-03-17T06:53:52.068Z,59.68
2017-03-17T06:54:32.952Z,59.52
2017-03-17T06:55:13.842Z,59.8
2017-03-17T06:55:54.726Z,59.05
2017-03-17T06:56:35.622Z,58.76
2017-03-17T06:57:16.507Z,58.85
2017-03-17T06:57:57.379Z,58.76
2017-03-17T06:58:38.260Z,58.37
2017-03-17T06:59:19.146Z,58
2017-03-17T07:00:00.037Z,58.28
2017-03-17T07:00:40.919Z,58.09
2017-03-17T07:01:21.824Z,57.9
2017-03-17T07:02:02.690Z,57.9
2017-03-17T07:02:43.579Z,58.09
2017-03-17T07:03:24.459Z,57.93
2017-03-17T07:04:05.334Z,57.62
2017-03-17T07:04:46.227Z,57.81
2017-03-17T07:05:27.131Z,57.07
2017-03-17T07:06:08.007Z,56.98
2017-03-17T07:06:48.893Z,56.98
2017-03-17T07:07:29.778Z,56.7
2017-03-17T07:08:10.660Z,56.41
2017-03-17T07:08:51.537Z,56.6
2017-03-17T07:09:32.423Z,56.7
2017-03-17T07:10:13.313Z,56.88
2017-03-17T07:10:54.196Z,56.98
2017-03-17T07:11:35.084Z,56.98
2017-03-17T07:12:15.967Z,56.7
2017-03-17T07:12:56.908Z,56.6
2017-03-17T07:13:37.793Z,56.6
2017-03-17T07:14:18.674Z,56.41
2017-03-17T07:14:59.561Z,56.79
2017-03-17T07:15:40.435Z,56.88
2017-03-17T07:16:21.322Z,56.03
2017-03-17T07:17:02.207Z,55.83
2017-03-17T07:17:43.089Z,56.31
2017-03-17T07:18:23.970Z,56.31
2017-03-17T07:19:04.862Z,55.83
2017-03-17T07:19:45.746Z,55.83
2017-03-17T07:20:26.630Z,56.22
2017-03-17T07:21:07.517Z,56.88
2017-03-17T07:21:48.404Z,56.6
2017-03-17T07:22:29.281Z,56.79
2017-03-17T07:23:10.160Z,56.31
2017-03-17T07:23:51.045Z,55.93
2017-03-17T07:24:31.939Z,56.12
2017-03-17T07:25:12.822Z,55.65
2017-03-17T07:25:53.711Z,55.93
2017-03-17T07:26:34.597Z,55.83
2017-03-17T07:27:15.477Z,55.74
2017-03-17T07:27:56.361Z,56.03
2017-03-17T07:28:37.245Z,55.68
2017-03-17T07:29:18.124Z,55.77
2017-03-17T07:29:59.009Z,55.77
2017-03-17T07:30:39.888Z,55.68
2017-03-17T07:31:20.781Z,55.68
2017-03-17T07:32:01.662Z,55.68
2017-03-17T07:32:42.546Z,56.05
2017-03-17T07:33:23.429Z,56.05
2017-03-17T07:34:04.334Z,55.96
2017-03-17T07:34:45.199Z,56.24
2017-03-17T07:35:26.079Z,56.05
2017-03-17T07:36:06.961Z,56.24
2017-03-17T07:36:47.844Z,56.15
2017-03-17T07:37:28.738Z,57.77
2017-03-17T07:38:09.628Z,60.15
2017-03-17T07:38:50.518Z,58.81
2017-03-17T07:39:31.407Z,57.67
2017-03-17T07:40:12.290Z,58.15
2017-03-17T07:40:53.168Z,58.06
2017-03-17T07:41:34.053Z,58.81
2017-03-17T07:42:14.939Z,59.01
2017-03-17T07:42:55.816Z,59.01
2017-03-17T07:43:36.698Z,59.01
2017-03-17T07:44:17.591Z,59.2
2017-03-17T07:44:58.477Z,59.86
2017-03-17T07:45:39.360Z,60.72
2017-03-17T07:46:20.237Z,60.72
2017-03-17T07:47:01.124Z,60.82
2017-03-17T07:47:42.005Z,60.53
2017-03-17T07:48:22.894Z,60.82
2017-03-17T07:49:03.776Z,60.91
2017-03-17T07:49:44.657Z,60.41
2017-03-17T07:50:25.539Z,60.53
2017-03-17T07:51:06.435Z,60.5
2017-03-17T07:51:47.315Z,60.63
2017-03-17T07:52:28.201Z,61.29
2017-03-17T07:53:09.088Z,61.83
2017-03-17T07:53:49.972Z,61.96
2017-03-17T07:54:30.861Z,62.34
2017-03-17T07:55:11.735Z,62.43
2017-03-17T07:55:52.610Z,62.05
2017-03-17T07:56:33.491Z,62.15
2017-03-17T07:57:14.372Z,62.21
2017-03-17T07:57:55.258Z,62.62
2017-03-17T07:58:36.127Z,62.05
2017-03-17T07:59:17.006Z,62.3
2017-03-17T07:59:57.887Z,62.24
2017-03-17T08:00:38.766Z,62.34
2017-03-17T08:01:19.640Z,62.05
2017-03-17T08:02:00.527Z,61.96
2017-03-17T08:02:41.410Z,61.96
2017-03-17T08:03:22.287Z,61.96
2017-03-17T08:04:03.178Z,61.67
2017-03-17T08:04:44.061Z,62.15
2017-03-17T08:05:24.940Z,62.15
2017-03-17T08:06:05.809Z,62.05
2017-03-17T08:06:46.689Z,61.67
2017-03-17T08:07:27.595Z,61.77
2017-03-17T08:08:08.476Z,61.86
2017-03-17T08:08:49.357Z,61.67
2017-03-17T08:09:30.237Z,61.67
2017-03-17T08:10:11.124Z,61.86
2017-03-17T08:10:52.005Z,61.58
2017-03-17T08:11:32.896Z,61.19
2017-03-17T08:12:13.783Z,61.1
2017-03-17T08:12:54.668Z,61.29
2017-03-17T08:13:35.552Z,61.48
2017-03-17T08:14:16.430Z,61.38
2017-03-17T08:14:57.317Z,61
2017-03-17T08:15:38.200Z,60.82
2017-03-17T08:16:19.085Z,61
2017-03-17T08:16:59.965Z,61.1
2017-03-17T08:17:40.847Z,61.38
2017-03-17T08:18:21.737Z,61.67
2017-03-17T08:19:02.617Z,61.58
2017-03-17T08:19:43.497Z,61.67
2017-03-17T08:20:24.382Z,61.38
2017-03-17T08:21:05.271Z,61.13
2017-03-17T08:21:46.152Z,61.29
2017-03-17T08:22:27.038Z,61.51
2017-03-17T08:23:07.920Z,60.66
2017-03-17T08:23:48.799Z,59.99
2017-03-17T08:24:29.675Z,59.51
2017-03-17T08:25:10.553Z,59.16
2017-03-17T08:25:51.460Z,59.03
2017-03-17T08:26:32.347Z,58.97
2017-03-17T08:27:13.238Z,59.06
2017-03-17T08:27:54.123Z,59.06
2017-03-17T08:28:35.006Z,58.94
2017-03-17T08:29:15.893Z,59.06
2017-03-17T08:29:56.766Z,59.26
2017-03-17T08:30:37.646Z,58.5
2017-03-17T08:31:18.535Z,58.78
2017-03-17T08:31:59.444Z,59.35
2017-03-17T08:32:40.305Z,59.54
2017-03-17T08:33:21.186Z,59.35
2017-03-17T08:34:02.069Z,59.64
2017-03-17T08:34:42.951Z,59.74
2017-03-17T08:35:23.833Z,59.74
2017-03-17T08:36:04.738Z,59.92
2017-03-17T08:36:45.621Z,59.26
2017-03-17T08:37:26.509Z,59.06
2017-03-17T08:38:07.396Z,59.19
2017-03-17T08:38:48.281Z,59.06
2017-03-17T08:39:29.190Z,58.97
2017-03-17T08:40:10.071Z,58.5
2017-03-17T08:40:50.958Z,58.97
2017-03-17T08:41:31.843Z,58.87
2017-03-17T08:42:12.731Z,58.5
2017-03-17T08:42:53.616Z,58.21
2017-03-17T08:43:34.498Z,58.02
2017-03-17T08:44:15.379Z,57.28
2017-03-17T08:44:56.287Z,57
2017-03-17T08:45:37.168Z,56.71
2017-03-17T08:46:18.057Z,56.26
2017-03-17T08:46:58.933Z,56.07
2017-03-17T08:47:39.813Z,55.88
2017-03-17T08:48:20.686Z,55.6
2017-03-17T08:49:01.577Z,55.69